Time;durP1;ratioP1;P1;durP2;ratioP2;P2;SDS_P1;SDS_P2;PMS_P1;PMS_P2;Temp;Humidity;BMP_temperature;BMP_pressure;BME280_temperature;BME280_humidity;BME280_pressure;Samples;Min_cycle;Max_cycle;Signal;HPM_P1;HPM_P2
2021/05/09 00:01:30;;;;;;;8.52;1.90;;;;;;;;;;5049749;28;20045;-67
2021/05/09 00:03:56;;;;;;;10.20;1.73;;;;;;;;;;5047365;28;20020;-67
2021/05/09 00:06:21;;;;;;;4.60;1.58;;;;;;;;;;5052143;28;20116;-67
2021/05/09 00:08:47;;;;;;;6.40;1.63;;;;;;;;;;5051285;28;20064;-67
2021/05/09 00:11:12;;;;;;;3.38;1.80;;;;;;;;;;5049880;28;20025;-66
2021/05/09 00:13:38;;;;;;;4.72;1.85;;;;;;;;;;5050909;28;20029;-67
2021/05/09 00:16:04;;;;;;;3.65;1.30;;;;;;;;;;5052725;28;20111;-67
2021/05/09 00:18:29;;;;;;;5.13;1.48;;;;;;;;;;5052148;28;20052;-66
2021/05/09 00:20:55;;;;;;;4.20;1.42;;;;;;;;;;5052900;28;20045;-67
2021/05/09 00:23:20;;;;;;;4.75;1.40;;;;;;;;;;5052690;28;20044;-64
2021/05/09 00:25:45;;;;;;;3.88;1.45;;;;;;;;;;5053029;28;20075;-64
2021/05/09 00:28:11;;;;;;;5.32;1.75;;;;;;;;;;5052565;28;20545;-64
2021/05/09 00:30:36;;;;;;;5.68;1.90;;;;;;;;;;5053136;28;20388;-66
2021/05/09 00:33:01;;;;;;;6.88;1.63;;;;;;;;;;5052776;28;20013;-66
2021/05/09 00:35:27;;;;;;;4.50;1.65;;;;;;;;;;5053087;28;20126;-66
2021/05/09 00:37:52;;;;;;;8.15;1.42;;;;;;;;;;5053210;28;20054;-67
2021/05/09 00:40:17;;;;;;;8.07;1.52;;;;;;;;;;5050777;28;20045;-67
2021/05/09 00:42:43;;;;;;;4.85;1.23;;;;;;;;;;5051413;28;20072;-66
2021/05/09 00:45:08;;;;;;;5.13;1.67;;;;;;;;;;5052648;28;20036;-64
2021/05/09 00:47:33;;;;;;;4.70;1.70;;;;;;;;;;5052905;28;20025;-64
2021/05/09 00:49:59;;;;;;;5.60;1.83;;;;;;;;;;5052746;28;20036;-64
2021/05/09 00:52:26;;;;;;;6.00;2.58;;;;;;;;;;5052498;28;20427;-64
2021/05/09 00:54:51;;;;;;;4.75;2.03;;;;;;;;;;5052975;28;20017;-64
2021/05/09 00:57:18;;;;;;;5.00;1.75;;;;;;;;;;5052803;28;20128;-64
2021/05/09 00:59:44;;;;;;;5.63;2.00;;;;;;;;;;5052949;28;20040;-64
2021/05/09 01:02:12;;;;;;;9.35;1.95;;;;;;;;;;5052617;28;20458;-66
2021/05/09 01:04:37;;;;;;;7.88;2.10;;;;;;;;;;5052809;28;20032;-67
2021/05/09 01:07:03;;;;;;;7.05;1.95;;;;;;;;;;5052818;28;20037;-67
2021/05/09 01:09:28;;;;;;;4.15;1.77;;;;;;;;;;5052636;28;20382;-67
2021/05/09 01:11:53;;;;;;;3.72;1.80;;;;;;;;;;5052528;28;20432;-67
2021/05/09 01:14:19;;;;;;;5.55;1.92;;;;;;;;;;5052636;28;20033;-64
2021/05/09 01:16:45;;;;;;;8.65;2.50;;;;;;;;;;5052705;28;20031;-64
2021/05/09 01:19:10;;;;;;;7.00;2.30;;;;;;;;;;5052538;28;20061;-64
2021/05/09 01:21:36;;;;;;;10.25;2.55;;;;;;;;;;5052320;28;20527;-64
2021/05/09 01:24:01;;;;;;;5.13;2.25;;;;;;;;;;5052354;28;20049;-64
2021/05/09 01:26:26;;;;;;;9.82;2.13;;;;;;;;;;5052300;28;20394;-64
2021/05/09 01:28:52;;;;;;;10.48;3.47;;;;;;;;;;5052515;28;20037;-64
2021/05/09 01:31:18;;;;;;;7.28;2.60;;;;;;;;;;5052622;28;20112;-64
2021/05/09 01:33:43;;;;;;;7.50;1.98;;;;;;;;;;5052823;28;20021;-64
2021/05/09 01:36:08;;;;;;;5.57;1.75;;;;;;;;;;5052480;28;20084;-64
2021/05/09 01:38:33;;;;;;;5.38;2.45;;;;;;;;;;5052141;28;20021;-64
2021/05/09 01:40:59;;;;;;;6.80;2.25;;;;;;;;;;5055369;28;20045;-64
2021/05/09 01:43:24;;;;;;;8.13;2.28;;;;;;;;;;5055772;28;20063;-64
2021/05/09 01:45:49;;;;;;;8.48;1.95;;;;;;;;;;5056269;28;20021;-64
2021/05/09 01:48:15;;;;;;;8.23;2.17;;;;;;;;;;5056305;28;20035;-64
2021/05/09 01:50:40;;;;;;;5.72;2.00;;;;;;;;;;5055990;28;20389;-64
2021/05/09 01:53:05;;;;;;;6.82;2.30;;;;;;;;;;5056019;28;20024;-64
2021/05/09 01:55:31;;;;;;;7.50;2.13;;;;;;;;;;5056090;28;20116;-64
2021/05/09 01:57:56;;;;;;;9.55;1.95;;;;;;;;;;5055864;28;20067;-64
2021/05/09 02:00:22;;;;;;;8.90;2.22;;;;;;;;;;5055567;28;20017;-64
2021/05/09 02:02:48;;;;;;;8.00;1.90;;;;;;;;;;5055483;28;20496;-65
2021/05/09 02:05:14;;;;;;;7.88;1.98;;;;;;;;;;5055802;28;20482;-64
2021/05/09 02:07:39;;;;;;;6.00;1.90;;;;;;;;;;5055672;28;20480;-64
2021/05/09 02:10:05;;;;;;;4.82;1.77;;;;;;;;;;5055794;28;20538;-64
2021/05/09 02:12:30;;;;;;;9.15;2.17;;;;;;;;;;5055550;28;20033;-64
2021/05/09 02:14:56;;;;;;;9.40;1.88;;;;;;;;;;5055907;28;20032;-64
2021/05/09 02:17:21;;;;;;;7.82;2.10;;;;;;;;;;5055504;28;20025;-67
2021/05/09 02:19:47;;;;;;;7.00;2.33;;;;;;;;;;5056006;28;20037;-66
2021/05/09 02:22:12;;;;;;;7.40;2.40;;;;;;;;;;5055435;28;20102;-66
2021/05/09 02:24:37;;;;;;;6.18;1.88;;;;;;;;;;5055454;28;20465;-66
2021/05/09 02:27:03;;;;;;;5.13;2.10;;;;;;;;;;5055536;28;20083;-66
2021/05/09 02:29:28;;;;;;;7.55;2.13;;;;;;;;;;5055310;28;20048;-64
2021/05/09 02:31:53;;;;;;;5.68;2.15;;;;;;;;;;5055476;28;20048;-64
2021/05/09 02:34:18;;;;;;;9.27;1.90;;;;;;;;;;5054946;28;20029;-64
2021/05/09 02:36:45;;;;;;;7.70;2.30;;;;;;;;;;5055286;28;20025;-64
2021/05/09 02:39:11;;;;;;;7.88;3.30;;;;;;;;;;5055142;28;20040;-64
2021/05/09 02:41:36;;;;;;;5.63;2.33;;;;;;;;;;5055282;28;20053;-64
2021/05/09 02:44:01;;;;;;;6.88;2.10;;;;;;;;;;5055079;28;20021;-64
2021/05/09 02:46:26;;;;;;;11.65;2.78;;;;;;;;;;5055040;28;20377;-64
2021/05/09 02:48:52;;;;;;;8.82;2.85;;;;;;;;;;5054974;28;20029;-64
2021/05/09 02:51:18;;;;;;;11.20;3.33;;;;;;;;;;5054568;28;20355;-65
2021/05/09 02:53:44;;;;;;;10.90;3.20;;;;;;;;;;5054933;28;20108;-64
2021/05/09 02:56:09;;;;;;;15.52;3.17;;;;;;;;;;5054582;28;20495;-64
2021/05/09 02:58:34;;;;;;;14.32;3.38;;;;;;;;;;5054725;28;20013;-64
2021/05/09 03:00:59;;;;;;;10.65;3.40;;;;;;;;;;5054803;28;20036;-64
2021/05/09 03:03:25;;;;;;;13.88;3.60;;;;;;;;;;5054665;28;20424;-64
2021/05/09 03:05:50;;;;;;;10.90;4.15;;;;;;;;;;5052197;28;20027;-67
2021/05/09 03:08:15;;;;;;;12.90;3.65;;;;;;;;;;5053301;28;20025;-67
2021/05/09 03:10:40;;;;;;;14.85;4.45;;;;;;;;;;5054155;28;20086;-67
2021/05/09 03:13:06;;;;;;;11.60;3.55;;;;;;;;;;5054802;28;20017;-67
2021/05/09 03:15:31;;;;;;;6.88;3.35;;;;;;;;;;5054664;28;20472;-67
2021/05/09 03:17:56;;;;;;;11.35;3.65;;;;;;;;;;5054524;28;20552;-65
2021/05/09 03:20:22;;;;;;;18.52;4.25;;;;;;;;;;5054116;28;20024;-64
2021/05/09 03:22:47;;;;;;;11.45;3.60;;;;;;;;;;5054224;28;20123;-65
2021/05/09 03:25:12;;;;;;;10.65;3.58;;;;;;;;;;5054341;28;20037;-65
2021/05/09 03:27:38;;;;;;;9.90;3.75;;;;;;;;;;5054164;28;20028;-64
2021/05/09 03:30:03;;;;;;;15.48;3.90;;;;;;;;;;5054146;28;20314;-64
2021/05/09 03:32:29;;;;;;;11.35;3.70;;;;;;;;;;5053210;28;20025;-65
2021/05/09 03:34:54;;;;;;;12.05;3.45;;;;;;;;;;5054269;28;20025;-64
2021/05/09 03:37:20;;;;;;;15.05;4.45;;;;;;;;;;5054277;28;20078;-65
2021/05/09 03:39:46;;;;;;;8.40;1.80;;;;;;;;;;5053934;28;20114;-65
2021/05/09 03:42:11;;;;;;;6.22;2.50;;;;;;;;;;5053795;28;20469;-65
2021/05/09 03:44:36;;;;;;;7.40;1.50;;;;;;;;;;5053957;28;20111;-65
2021/05/09 03:47:01;;;;;;;3.60;1.20;;;;;;;;;;5053798;28;20469;-65
2021/05/09 03:49:27;;;;;;;5.13;1.60;;;;;;;;;;5053784;28;20017;-65
2021/05/09 03:51:52;;;;;;;3.85;1.27;;;;;;;;;;5053662;28;20033;-65
2021/05/09 03:54:17;;;;;;;2.20;0.63;;;;;;;;;;5053409;28;20033;-65
2021/05/09 03:56:42;;;;;;;1.40;0.90;;;;;;;;;;5053835;28;20016;-65
2021/05/09 03:59:08;;;;;;;1.70;0.85;;;;;;;;;;5053600;28;20032;-65
2021/05/09 04:01:33;;;;;;;3.17;0.60;;;;;;;;;;5053093;28;20136;-64
2021/05/09 04:03:58;;;;;;;5.53;0.85;;;;;;;;;;5052945;28;20024;-64
2021/05/09 04:06:24;;;;;;;1.85;0.50;;;;;;;;;;5053583;28;20051;-64
2021/05/09 04:08:49;;;;;;;3.20;0.57;;;;;;;;;;5053217;28;20066;-65
2021/05/09 04:11:14;;;;;;;2.38;0.63;;;;;;;;;;5053297;28;20021;-64
2021/05/09 04:13:43;;;;;;;4.32;0.50;;;;;;;;;;5053428;28;20091;-64
2021/05/09 04:16:08;;;;;;;3.08;0.60;;;;;;;;;;5053458;28;20405;-65
2021/05/09 04:18:34;;;;;;;1.73;0.70;;;;;;;;;;5053357;28;20035;-64
2021/05/09 04:20:59;;;;;;;4.88;0.90;;;;;;;;;;5053318;28;20537;-64
2021/05/09 04:23:24;;;;;;;2.78;0.80;;;;;;;;;;5053156;28;20033;-65
2021/05/09 04:25:50;;;;;;;4.07;0.90;;;;;;;;;;5053289;28;20480;-64
2021/05/09 04:28:16;;;;;;;1.83;0.70;;;;;;;;;;5052793;28;20029;-64
2021/05/09 04:30:41;;;;;;;1.77;0.80;;;;;;;;;;5053257;28;20032;-64
2021/05/09 04:33:07;;;;;;;8.30;0.80;;;;;;;;;;5052680;28;20457;-65
2021/05/09 04:35:33;;;;;;;2.97;0.70;;;;;;;;;;5053240;28;20074;-64
2021/05/09 04:37:58;;;;;;;5.55;0.80;;;;;;;;;;5052698;28;20044;-64
2021/05/09 04:40:24;;;;;;;5.95;0.80;;;;;;;;;;5052493;28;20076;-64
2021/05/09 04:42:50;;;;;;;2.42;0.68;;;;;;;;;;5052770;28;20128;-64
2021/05/09 04:45:15;;;;;;;4.00;0.75;;;;;;;;;;5052781;28;20053;-64
2021/05/09 04:47:41;;;;;;;3.35;0.70;;;;;;;;;;5052947;28;20021;-65
2021/05/09 04:50:07;;;;;;;6.25;0.93;;;;;;;;;;5053008;28;20153;-64
2021/05/09 04:52:32;;;;;;;0.80;0.40;;;;;;;;;;5052787;28;20033;-64
2021/05/09 04:54:57;;;;;;;2.92;0.63;;;;;;;;;;5052969;28;20025;-64
2021/05/09 04:57:23;;;;;;;4.40;0.70;;;;;;;;;;5052963;28;20025;-64
2021/05/09 04:59:48;;;;;;;1.92;0.60;;;;;;;;;;5052749;28;20166;-64
2021/05/09 05:02:13;;;;;;;5.60;0.68;;;;;;;;;;5052802;28;20041;-65
2021/05/09 05:04:39;;;;;;;2.78;0.70;;;;;;;;;;5052790;28;20044;-64
2021/05/09 05:07:04;;;;;;;2.63;1.00;;;;;;;;;;5052840;28;20041;-64
2021/05/09 05:09:29;;;;;;;2.35;0.63;;;;;;;;;;5052623;28;20035;-64
2021/05/09 05:11:55;;;;;;;4.43;1.25;;;;;;;;;;5052815;28;20056;-65
2021/05/09 05:14:20;;;;;;;1.27;0.57;;;;;;;;;;5054573;28;20064;-65
2021/05/09 05:16:45;;;;;;;1.92;0.60;;;;;;;;;;5056975;28;20017;-65
2021/05/09 05:19:11;;;;;;;3.22;0.55;;;;;;;;;;5056645;28;20029;-65
2021/05/09 05:21:36;;;;;;;1.55;0.60;;;;;;;;;;5055286;28;20051;-65
2021/05/09 05:24:01;;;;;;;4.18;0.85;;;;;;;;;;5056676;28;20508;-64
2021/05/09 05:26:27;;;;;;;4.07;1.08;;;;;;;;;;5056636;28;20226;-64
2021/05/09 05:28:52;;;;;;;2.85;0.80;;;;;;;;;;5056228;28;20430;-65
2021/05/09 05:31:17;;;;;;;4.82;0.52;;;;;;;;;;5056481;28;20025;-64
2021/05/09 05:33:43;;;;;;;1.85;0.40;;;;;;;;;;5056441;28;20434;-64
2021/05/09 05:36:09;;;;;;;4.40;0.73;;;;;;;;;;5056452;28;20033;-65
2021/05/09 05:38:34;;;;;;;4.80;0.57;;;;;;;;;;5056259;28;20025;-65
2021/05/09 05:41:00;;;;;;;2.30;0.57;;;;;;;;;;5055904;28;20045;-64
2021/05/09 05:43:31;;;;;;;3.22;0.68;;;;;;;;;;5056103;28;20474;-65
2021/05/09 05:45:57;;;;;;;5.32;0.50;;;;;;;;;;5056264;28;20021;-64
2021/05/09 05:48:23;;;;;;;3.03;0.60;;;;;;;;;;5056083;28;20040;-64
2021/05/09 05:50:49;;;;;;;5.10;0.40;;;;;;;;;;5056244;28;20032;-64
2021/05/09 05:53:18;;;;;;;4.00;0.90;;;;;;;;;;5055713;28;20493;-65
2021/05/09 05:55:44;;;;;;;2.40;0.80;;;;;;;;;;5056194;28;20044;-64
2021/05/09 05:58:09;;;;;;;2.83;0.50;;;;;;;;;;5055879;28;20040;-65
2021/05/09 06:00:34;;;;;;;3.38;0.50;;;;;;;;;;5056074;28;20453;-65
2021/05/09 06:03:00;;;;;;;1.80;0.88;;;;;;;;;;5055748;28;20056;-65
2021/05/09 06:05:25;;;;;;;1.90;0.52;;;;;;;;;;5055643;28;20033;-66
2021/05/09 06:07:50;;;;;;;1.08;0.40;;;;;;;;;;5055829;28;20044;-66
2021/05/09 06:10:15;;;;;;;2.33;0.50;;;;;;;;;;5055856;28;20360;-66
2021/05/09 06:12:41;;;;;;;0.43;0.43;;;;;;;;;;5055409;28;20044;-66
2021/05/09 06:15:06;;;;;;;3.80;0.52;;;;;;;;;;5054528;28;20028;-66
2021/05/09 06:17:32;;;;;;;2.28;0.60;;;;;;;;;;5055406;28;20104;-67
2021/05/09 06:19:57;;;;;;;3.17;0.68;;;;;;;;;;5055560;28;20140;-65
2021/05/09 06:22:22;;;;;;;0.88;0.50;;;;;;;;;;5055552;28;20028;-64
2021/05/09 06:24:47;;;;;;;2.45;0.50;;;;;;;;;;5055180;28;20054;-64
2021/05/09 06:27:13;;;;;;;1.17;0.50;;;;;;;;;;5054931;28;20496;-64
2021/05/09 06:29:38;;;;;;;4.90;0.60;;;;;;;;;;5055392;28;20473;-64
2021/05/09 06:32:03;;;;;;;4.03;0.50;;;;;;;;;;5055176;28;20079;-64
2021/05/09 06:34:29;;;;;;;1.92;0.70;;;;;;;;;;5055267;28;20120;-64
2021/05/09 06:36:54;;;;;;;1.25;0.70;;;;;;;;;;5055337;28;20029;-64
2021/05/09 06:39:25;;;;;;;0.95;0.50;;;;;;;;;;5054622;28;20025;-64
2021/05/09 06:41:51;;;;;;;2.13;1.02;;;;;;;;;;5055436;28;20032;-64
2021/05/09 06:44:16;;;;;;;1.10;0.50;;;;;;;;;;5055105;28;20468;-64
2021/05/09 06:46:42;;;;;;;4.35;0.70;;;;;;;;;;5055100;28;20025;-64
2021/05/09 06:49:07;;;;;;;2.08;0.80;;;;;;;;;;5054998;28;20456;-64
2021/05/09 06:51:32;;;;;;;1.30;0.50;;;;;;;;;;5055063;28;20025;-64
2021/05/09 06:53:59;;;;;;;3.53;0.70;;;;;;;;;;5054602;28;20029;-64
2021/05/09 06:56:26;;;;;;;5.85;1.02;;;;;;;;;;5054972;28;20259;-64
2021/05/09 06:58:51;;;;;;;1.27;0.50;;;;;;;;;;5054653;28;20469;-64
2021/05/09 07:01:16;;;;;;;6.22;0.80;;;;;;;;;;5054742;28;20051;-64
2021/05/09 07:03:42;;;;;;;1.42;0.80;;;;;;;;;;5054749;28;20028;-64
2021/05/09 07:06:07;;;;;;;1.80;0.70;;;;;;;;;;5054900;28;20021;-65
2021/05/09 07:08:32;;;;;;;2.85;0.95;;;;;;;;;;5054215;28;20056;-65
2021/05/09 07:10:57;;;;;;;3.05;0.85;;;;;;;;;;5054775;28;20068;-65
2021/05/09 07:13:23;;;;;;;3.47;0.85;;;;;;;;;;5054413;28;20442;-65
2021/05/09 07:15:49;;;;;;;4.53;1.05;;;;;;;;;;5054580;28;20036;-66
2021/05/09 07:18:16;;;;;;;2.95;0.75;;;;;;;;;;5054333;28;20039;-65
2021/05/09 07:20:46;;;;;;;2.05;0.80;;;;;;;;;;5060245;28;20020;-65
2021/05/09 07:23:13;;;;;;;3.33;0.90;;;;;;;;;;5065286;28;20086;-65
2021/05/09 07:25:39;;;;;;;5.05;1.30;;;;;;;;;;5053997;28;20037;-65
2021/05/09 07:28:09;;;;;;;5.05;0.98;;;;;;;;;;5053512;28;20036;-65
2021/05/09 07:30:34;;;;;;;5.18;1.60;;;;;;;;;;5053963;28;20032;-66
2021/05/09 07:33:00;;;;;;;4.22;1.00;;;;;;;;;;5054156;28;20378;-65
2021/05/09 07:35:25;;;;;;;4.95;1.25;;;;;;;;;;5054233;28;20361;-66
2021/05/09 07:37:52;;;;;;;5.05;1.10;;;;;;;;;;5053790;28;20032;-65
2021/05/09 07:40:17;;;;;;;3.97;1.30;;;;;;;;;;5053780;28;20049;-66
2021/05/09 07:42:43;;;;;;;4.35;1.10;;;;;;;;;;5053005;28;20535;-65
2021/05/09 07:45:14;;;;;;;2.72;0.80;;;;;;;;;;5053710;28;20033;-66
2021/05/09 07:47:40;;;;;;;3.13;0.90;;;;;;;;;;5052680;28;20029;-66
2021/05/09 07:50:08;;;;;;;4.03;1.17;;;;;;;;;;5052811;28;20088;-66
2021/05/09 07:52:33;;;;;;;4.70;1.50;;;;;;;;;;5052994;28;20056;-66
2021/05/09 07:54:58;;;;;;;5.05;1.05;;;;;;;;;;5053121;28;20025;-65
2021/05/09 07:57:24;;;;;;;2.53;0.90;;;;;;;;;;5053158;28;20047;-66
2021/05/09 07:59:49;;;;;;;6.18;1.33;;;;;;;;;;5052959;28;20046;-65
2021/05/09 08:02:14;;;;;;;4.40;1.40;;;;;;;;;;5053328;28;20481;-65
2021/05/09 08:04:40;;;;;;;5.93;1.65;;;;;;;;;;5053541;28;20021;-65
2021/05/09 08:07:05;;;;;;;6.88;1.58;;;;;;;;;;5053710;28;20485;-66
2021/05/09 08:09:30;;;;;;;6.53;1.50;;;;;;;;;;5053490;28;20044;-66
2021/05/09 08:11:55;;;;;;;6.13;1.48;;;;;;;;;;5053420;28;20021;-66
2021/05/09 08:14:21;;;;;;;8.10;1.60;;;;;;;;;;5052983;28;20028;-65
2021/05/09 08:16:46;;;;;;;4.00;1.40;;;;;;;;;;5053494;28;20032;-66
2021/05/09 08:19:11;;;;;;;6.35;1.58;;;;;;;;;;5053217;28;20025;-66
2021/05/09 08:21:37;;;;;;;7.30;1.70;;;;;;;;;;5053364;28;20481;-66
2021/05/09 08:24:02;;;;;;;5.47;1.20;;;;;;;;;;5052845;28;20123;-66
2021/05/09 08:26:27;;;;;;;8.50;1.60;;;;;;;;;;5052793;28;20031;-66
2021/05/09 08:28:52;;;;;;;7.88;1.38;;;;;;;;;;5044377;28;20401;-65
2021/05/09 08:31:18;;;;;;;9.77;1.58;;;;;;;;;;5051706;28;20432;-65
2021/05/09 08:33:44;;;;;;;7.22;1.42;;;;;;;;;;5052379;28;20028;-65
2021/05/09 08:36:09;;;;;;;5.63;1.52;;;;;;;;;;5052118;28;20032;-65
2021/05/09 08:38:34;;;;;;;8.43;1.60;;;;;;;;;;5051559;28;20029;-66
2021/05/09 08:41:00;;;;;;;6.60;1.75;;;;;;;;;;5051408;28;20064;-66
2021/05/09 08:43:25;;;;;;;10.30;2.08;;;;;;;;;;5052495;28;20037;-65
2021/05/09 08:45:50;;;;;;;7.15;1.58;;;;;;;;;;5052337;28;20059;-66
2021/05/09 08:48:21;;;;;;;10.18;2.20;;;;;;;;;;5052494;28;20118;-66
2021/05/09 08:50:48;;;;;;;9.60;1.83;;;;;;;;;;5052930;28;20036;-66
2021/05/09 08:53:17;;;;;;;11.77;2.75;;;;;;;;;;5052863;28;20043;-66
2021/05/09 08:55:42;;;;;;;6.00;1.67;;;;;;;;;;5053198;28;20032;-66
2021/05/09 08:58:08;;;;;;;7.57;1.88;;;;;;;;;;5052884;28;20025;-66
2021/05/09 09:00:34;;;;;;;8.00;2.15;;;;;;;;;;5052775;28;20482;-66
2021/05/09 09:03:03;;;;;;;9.73;1.92;;;;;;;;;;5052721;28;20043;-66
2021/05/09 09:05:33;;;;;;;6.68;1.77;;;;;;;;;;5052849;28;20029;-66
2021/05/09 09:07:58;;;;;;;7.75;1.63;;;;;;;;;;5052565;28;20032;-66
2021/05/09 09:10:33;;;;;;;6.80;1.60;;;;;;;;;;5052650;28;20029;-66
2021/05/09 09:13:02;;;;;;;8.02;2.10;;;;;;;;;;5052780;28;20036;-66
2021/05/09 09:15:46;;;;;;;8.93;2.20;;;;;;;;;;5052683;28;20041;-66
2021/05/09 09:18:29;;;;;;;7.88;1.80;;;;;;;;;;5052626;28;20021;-66
2021/05/09 09:20:55;;;;;;;7.22;1.70;;;;;;;;;;5052652;28;20041;-66
2021/05/09 09:23:20;;;;;;;5.75;1.85;;;;;;;;;;5052506;28;20035;-66
2021/05/09 09:25:45;;;;;;;9.18;2.05;;;;;;;;;;5052293;28;20500;-66
2021/05/09 09:28:10;;;;;;;6.55;1.70;;;;;;;;;;5052663;28;20063;-66
2021/05/09 09:30:55;;;;;;;6.63;1.83;;;;;;;;;;5052603;28;20109;-66
2021/05/09 09:33:21;;;;;;;7.40;1.98;;;;;;;;;;5052487;28;20095;-66
2021/05/09 09:35:48;;;;;;;5.50;2.03;;;;;;;;;;5052546;28;20029;-66
2021/05/09 09:38:23;;;;;;;8.00;1.85;;;;;;;;;;5052468;28;20028;-66
2021/05/09 09:41:07;;;;;;;9.07;2.00;;;;;;;;;;5052527;28;20111;-66
2021/05/09 09:43:32;;;;;;;6.70;1.73;;;;;;;;;;5052341;28;20095;-66
2021/05/09 09:45:57;;;;;;;6.35;1.67;;;;;;;;;;5052523;28;20469;-66
2021/05/09 09:48:36;;;;;;;5.65;1.65;;;;;;;;;;5052393;28;20061;-66
2021/05/09 09:51:01;;;;;;;15.55;5.20;;;;;;;;;;5051934;28;20025;-66
2021/05/09 09:53:28;;;;;;;6.85;1.98;;;;;;;;;;5052011;28;20033;-66
2021/05/09 09:56:06;;;;;;;9.18;1.83;;;;;;;;;;5052381;28;20021;-66
2021/05/09 09:58:43;;;;;;;8.65;2.10;;;;;;;;;;5052290;28;20385;-66
2021/05/09 10:01:09;;;;;;;7.50;2.35;;;;;;;;;;5053857;28;20083;-66
2021/05/09 10:03:34;;;;;;;7.40;2.50;;;;;;;;;;5055789;28;20029;-66
2021/05/09 10:06:00;;;;;;;14.18;5.00;;;;;;;;;;5056022;28;20366;-66
2021/05/09 10:08:26;;;;;;;11.02;6.60;;;;;;;;;;5055792;28;20025;-66
2021/05/09 10:10:52;;;;;;;6.35;1.65;;;;;;;;;;5055904;28;20036;-66
2021/05/09 10:13:18;;;;;;;10.60;4.63;;;;;;;;;;5055679;28;20037;-66
2021/05/09 10:15:43;;;;;;;8.43;4.80;;;;;;;;;;5055791;28;20021;-66
2021/05/09 10:18:09;;;;;;;6.00;1.50;;;;;;;;;;5055360;28;20112;-66
2021/05/09 10:20:34;;;;;;;7.38;2.30;;;;;;;;;;5055562;28;20029;-65
2021/05/09 10:23:06;;;;;;;10.10;2.38;;;;;;;;;;5052746;28;20036;-66
2021/05/09 10:25:50;;;;;;;8.05;2.05;;;;;;;;;;5055005;28;20036;-66
2021/05/09 10:28:16;;;;;;;9.95;1.92;;;;;;;;;;5054364;28;20036;-65
2021/05/09 10:30:46;;;;;;;12.35;5.28;;;;;;;;;;5054994;28;20033;-65
2021/05/09 10:33:31;;;;;;;11.55;2.60;;;;;;;;;;5054664;28;20033;-65
2021/05/09 10:35:56;;;;;;;9.82;2.28;;;;;;;;;;5054715;28;20052;-66
2021/05/09 10:38:22;;;;;;;9.32;2.42;;;;;;;;;;5054066;28;20037;-65
2021/05/09 10:40:47;;;;;;;7.13;1.60;;;;;;;;;;5054399;28;20128;-65
2021/05/09 10:43:15;;;;;;;6.60;1.55;;;;;;;;;;5054585;28;20079;-65
2021/05/09 10:45:40;;;;;;;6.90;1.83;;;;;;;;;;5054588;28;20032;-65
2021/05/09 10:48:15;;;;;;;6.57;1.50;;;;;;;;;;5054248;28;20025;-64
2021/05/09 10:51:00;;;;;;;8.02;1.77;;;;;;;;;;5054494;28;20037;-64
2021/05/09 10:53:25;;;;;;;;;;;;;;;;;;5053994;28;20052;-65
2021/05/09 10:55:51;;;;;;;9.93;2.13;;;;;;;;;;5054568;28;19908;-65
2021/05/09 10:58:19;;;;;;;10.35;4.03;;;;;;;;;;5053846;28;20036;-65
2021/05/09 11:00:56;;;;;;;11.60;4.13;;;;;;;;;;5054058;28;20025;-65
2021/05/09 11:03:37;;;;;;;9.52;1.83;;;;;;;;;;5054242;28;20128;-66
2021/05/09 11:06:15;;;;;;;5.22;3.17;;;;;;;;;;5047291;28;20059;-67
2021/05/09 11:08:53;;;;;;;9.02;2.88;;;;;;;;;;5052851;28;20485;-67
2021/05/09 11:11:19;;;;;;;12.05;2.15;;;;;;;;;;5052644;28;20037;-67
2021/05/09 11:13:59;;;;;;;8.82;1.67;;;;;;;;;;5053250;28;20075;-67
2021/05/09 11:16:25;;;;;;;11.45;1.90;;;;;;;;;;5052693;28;20037;-66
2021/05/09 11:18:56;;;;;;;6.13;1.27;;;;;;;;;;5052075;28;20048;-67
2021/05/09 11:21:22;;;;;;;8.02;1.90;;;;;;;;;;5051135;28;20029;-66
2021/05/09 11:23:47;;;;;;;10.65;1.80;;;;;;;;;;5051780;28;20067;-66
2021/05/09 11:26:36;;;;;;;15.20;5.82;;;;;;;;;;5051730;28;20029;-66
2021/05/09 11:29:08;;;;;;;10.07;2.63;;;;;;;;;;5046984;28;20079;-66
2021/05/09 11:31:37;;;;;;;8.27;1.80;;;;;;;;;;5053170;28;20038;-66
2021/05/09 11:34:03;;;;;;;8.02;1.80;;;;;;;;;;5053009;28;20518;-67
2021/05/09 11:36:30;;;;;;;11.25;4.22;;;;;;;;;;5053398;28;20020;-66
2021/05/09 11:39:11;;;;;;;9.95;1.63;;;;;;;;;;5053374;28;20093;-67
2021/05/09 11:41:52;;;;;;;11.32;3.33;;;;;;;;;;5052511;28;20527;-66
2021/05/09 11:44:18;;;;;;;7.97;1.90;;;;;;;;;;5052728;28;20404;-66
2021/05/09 11:46:43;;;;;;;10.00;2.20;;;;;;;;;;5053469;28;20116;-67
2021/05/09 11:49:14;;;;;;;9.57;2.15;;;;;;;;;;5053497;28;20397;-66
2021/05/09 11:52:06;;;;;;;8.75;1.75;;;;;;;;;;5053565;28;20025;-67
2021/05/09 11:54:32;;;;;;;10.40;1.90;;;;;;;;;;5051475;28;20044;-67
2021/05/09 11:57:02;;;;;;;9.15;1.70;;;;;;;;;;5052291;28;20671;-67
2021/05/09 11:59:30;;;;;;;11.02;2.15;;;;;;;;;;5052952;28;20036;-67
2021/05/09 12:01:56;;;;;;;13.32;2.33;;;;;;;;;;5052532;28;20052;-67
2021/05/09 12:04:21;;;;;;;9.55;2.00;;;;;;;;;;5052753;28;20029;-67
2021/05/09 12:06:46;;;;;;;12.07;3.10;;;;;;;;;;5052697;28;20162;-66
2021/05/09 12:09:12;;;;;;;10.48;2.30;;;;;;;;;;5052587;28;20036;-66
2021/05/09 12:11:38;;;;;;;8.93;3.22;;;;;;;;;;5052622;28;20037;-66
2021/05/09 12:14:03;;;;;;;14.65;3.45;;;;;;;;;;5052222;28;20044;-67
2021/05/09 12:16:40;;;;;;;8.68;2.55;;;;;;;;;;5052603;28;20021;-67
2021/05/09 12:19:06;;;;;;;11.07;2.10;;;;;;;;;;5052591;28;20033;-67
2021/05/09 12:21:31;;;;;;;12.32;2.67;;;;;;;;;;5052713;28;20047;-67
2021/05/09 12:24:04;;;;;;;13.43;4.95;;;;;;;;;;5052349;28;20095;-66
2021/05/09 12:26:29;;;;;;;11.07;1.90;;;;;;;;;;5051983;28;20061;-66
2021/05/09 12:29:13;;;;;;;10.38;1.85;;;;;;;;;;5042211;28;20809;-66
2021/05/09 12:31:38;;;;;;;10.82;3.33;;;;;;;;;;5065610;28;20135;-66
2021/05/09 12:34:04;;;;;;;11.65;4.53;;;;;;;;;;5048630;28;20163;-66
2021/05/09 12:36:29;;;;;;;8.93;3.03;;;;;;;;;;5053680;28;20494;-66
2021/05/09 12:38:56;;;;;;;15.18;2.15;;;;;;;;;;5048818;28;20037;-66
2021/05/09 12:41:21;;;;;;;10.65;1.83;;;;;;;;;;5060608;28;20055;-65
2021/05/09 12:43:51;;;;;;;11.18;1.92;;;;;;;;;;5065536;28;20053;-65
2021/05/09 12:46:33;;;;;;;7.65;1.70;;;;;;;;;;5049299;28;20035;-65
2021/05/09 12:49:13;;;;;;;9.38;2.40;;;;;;;;;;5048816;28;20036;-67
2021/05/09 12:52:06;;;;;;;8.52;1.98;;;;;;;;;;5051698;28;20422;-67
2021/05/09 12:54:35;;;;;;;8.50;2.00;;;;;;;;;;5066632;28;20075;-66
2021/05/09 12:57:20;;;;;;;11.50;1.85;;;;;;;;;;5068235;28;20447;-67
2021/05/09 12:59:53;;;;;;;6.65;2.10;;;;;;;;;;5052199;28;20035;-66
2021/05/09 13:02:21;;;;;;;7.78;1.73;;;;;;;;;;5050080;28;20040;-67
2021/05/09 13:04:51;;;;;;;10.18;2.00;;;;;;;;;;5059466;28;20534;-67
2021/05/09 13:07:18;;;;;;;8.82;1.48;;;;;;;;;;5052830;28;20033;-67
2021/05/09 13:09:44;;;;;;;9.27;1.58;;;;;;;;;;5065445;28;20373;-64
2021/05/09 13:12:10;;;;;;;5.22;1.40;;;;;;;;;;5054944;28;20040;-65
2021/05/09 13:14:56;;;;;;;9.85;1.92;;;;;;;;;;5058375;28;20032;-65
2021/05/09 13:17:23;;;;;;;8.73;1.27;;;;;;;;;;5058757;28;20032;-64
2021/05/09 13:19:50;;;;;;;10.65;1.98;;;;;;;;;;5064644;28;20063;-65
2021/05/09 13:22:16;;;;;;;7.53;1.90;;;;;;;;;;5065319;28;20033;-64
2021/05/09 13:24:45;;;;;;;6.40;1.67;;;;;;;;;;5054628;28;20770;-66
2021/05/09 13:27:11;;;;;;;7.18;1.60;;;;;;;;;;5059495;28;20069;-67
2021/05/09 13:29:36;;;;;;;8.63;1.63;;;;;;;;;;5048129;28;20065;-67
2021/05/09 13:32:02;;;;;;;12.38;2.42;;;;;;;;;;5060267;28;20037;-67
2021/05/09 13:34:27;;;;;;;5.50;1.73;;;;;;;;;;5054113;28;20032;-65
2021/05/09 13:36:52;;;;;;;19.30;4.43;;;;;;;;;;5049613;28;20062;-65
2021/05/09 13:39:18;;;;;;;17.13;8.05;;;;;;;;;;5063848;28;20479;-64
2021/05/09 13:41:44;;;;;;;11.30;3.00;;;;;;;;;;5052959;28;20029;-64
2021/05/09 13:44:09;;;;;;;12.77;4.15;;;;;;;;;;5062803;28;20040;-64
2021/05/09 13:46:36;;;;;;;10.20;2.78;;;;;;;;;;5058623;28;20040;-64
2021/05/09 13:49:01;;;;;;;13.48;4.38;;;;;;;;;;5054767;28;20042;-64
2021/05/09 13:51:27;;;;;;;10.93;3.35;;;;;;;;;;5048041;28;20028;-66
2021/05/09 13:53:52;;;;;;;10.65;3.00;;;;;;;;;;5065030;28;20029;-66
2021/05/09 13:56:18;;;;;;;15.70;7.30;;;;;;;;;;5056147;28;20035;-66
2021/05/09 13:58:44;;;;;;;14.20;6.05;;;;;;;;;;5057710;28;20025;-67
2021/05/09 14:01:09;;;;;;;17.55;4.88;;;;;;;;;;5053425;28;20037;-66
2021/05/09 14:03:34;;;;;;;6.80;1.70;;;;;;;;;;5064848;28;20588;-66
2021/05/09 14:05:59;;;;;;;6.53;1.42;;;;;;;;;;5052281;28;20016;-66
2021/05/09 14:08:25;;;;;;;11.15;2.40;;;;;;;;;;5060920;28;20021;-66
2021/05/09 14:10:50;;;;;;;7.75;2.05;;;;;;;;;;5058232;28;20043;-67
2021/05/09 14:13:16;;;;;;;11.32;2.13;;;;;;;;;;5052732;28;20515;-66
2021/05/09 14:15:42;;;;;;;13.75;1.80;;;;;;;;;;5064556;28;20032;-67
2021/05/09 14:18:07;;;;;;;13.57;3.42;;;;;;;;;;5054184;28;20029;-66
2021/05/09 14:20:33;;;;;;;10.18;1.73;;;;;;;;;;5059552;28;20029;-66
2021/05/09 14:22:58;;;;;;;14.00;2.22;;;;;;;;;;5047835;28;20457;-66
2021/05/09 14:25:24;;;;;;;11.77;2.25;;;;;;;;;;5064230;28;20357;-67
2021/05/09 14:27:50;;;;;;;9.90;1.88;;;;;;;;;;5052031;28;20024;-67
2021/05/09 14:30:15;;;;;;;8.15;2.03;;;;;;;;;;5060311;28;20385;-66
2021/05/09 14:32:41;;;;;;;11.82;2.40;;;;;;;;;;5048219;28;20112;-66
2021/05/09 14:35:07;;;;;;;9.18;1.48;;;;;;;;;;5052465;28;20020;-66
2021/05/09 14:37:32;;;;;;;9.10;1.70;;;;;;;;;;5050694;28;20033;-67
2021/05/09 14:39:57;;;;;;;8.88;2.10;;;;;;;;;;5053202;28;20056;-67